sensor_id;sensor_type;location;lat;lon;timestamp;P1;durP1;ratioP1;P2;durP2;ratioP2
13687;SDS011;6916;51.504;7.416;2023-06-04T00:05:33;2.35;;;1.77;;
13687;SDS011;6916;51.504;7.416;2023-06-04T00:15:35;4.15;;;1.52;;
13687;SDS011;6916;51.504;7.416;2023-06-04T00:25:38;2.97;;;1.70;;
13687;SDS011;6916;51.504;7.416;2023-06-04T00:35:40;3.00;;;1.55;;
13687;SDS011;6916;51.504;7.416;2023-06-04T00:45:42;2.85;;;1.40;;
13687;SDS011;6916;51.504;7.416;2023-06-04T00:55:45;1.58;;;1.10;;
13687;SDS011;6916;51.504;7.416;2023-06-04T01:16:03;2.10;;;1.20;;
13687;SDS011;6916;51.504;7.416;2023-06-04T01:26:06;1.87;;;1.10;;
13687;SDS011;6916;51.504;7.416;2023-06-04T01:36:08;2.15;;;0.82;;
13687;SDS011;6916;51.504;7.416;2023-06-04T01:46:12;3.13;;;0.97;;
13687;SDS011;6916;51.504;7.416;2023-06-04T01:56:14;2.20;;;0.80;;
13687;SDS011;6916;51.504;7.416;2023-06-04T02:06:17;2.58;;;1.30;;
13687;SDS011;6916;51.504;7.416;2023-06-04T02:16:19;1.00;;;0.87;;
13687;SDS011;6916;51.504;7.416;2023-06-04T02:26:22;2.10;;;0.80;;
13687;SDS011;6916;51.504;7.416;2023-06-04T02:36:25;4.80;;;1.13;;
13687;SDS011;6916;51.504;7.416;2023-06-04T02:46:27;1.63;;;1.00;;
13687;SDS011;6916;51.504;7.416;2023-06-04T02:56:29;3.17;;;1.17;;
13687;SDS011;6916;51.504;7.416;2023-06-04T03:06:32;2.23;;;1.13;;
13687;SDS011;6916;51.504;7.416;2023-06-04T03:16:35;3.45;;;1.33;;
13687;SDS011;6916;51.504;7.416;2023-06-04T03:26:41;2.90;;;1.30;;
13687;SDS011;6916;51.504;7.416;2023-06-04T03:36:44;5.43;;;1.80;;
13687;SDS011;6916;51.504;7.416;2023-06-04T03:46:47;2.57;;;1.57;;
13687;SDS011;6916;51.504;7.416;2023-06-04T03:56:50;2.50;;;1.40;;
13687;SDS011;6916;51.504;7.416;2023-06-04T04:06:53;2.97;;;1.50;;
13687;SDS011;6916;51.504;7.416;2023-06-04T04:16:55;1.60;;;1.30;;
13687;SDS011;6916;51.504;7.416;2023-06-04T04:26:58;1.30;;;1.20;;
13687;SDS011;6916;51.504;7.416;2023-06-04T04:37:01;3.10;;;2.10;;
13687;SDS011;6916;51.504;7.416;2023-06-04T04:47:05;3.33;;;1.47;;
13687;SDS011;6916;51.504;7.416;2023-06-04T04:57:07;2.63;;;1.20;;
13687;SDS011;6916;51.504;7.416;2023-06-04T05:07:17;2.40;;;1.40;;
13687;SDS011;6916;51.504;7.416;2023-06-04T05:17:22;2.23;;;1.50;;
13687;SDS011;6916;51.504;7.416;2023-06-04T05:27:39;4.07;;;2.40;;
13687;SDS011;6916;51.504;7.416;2023-06-04T05:37:44;4.03;;;2.20;;
13687;SDS011;6916;51.504;7.416;2023-06-04T05:47:49;2.33;;;1.92;;
13687;SDS011;6916;51.504;7.416;2023-06-04T05:57:52;3.60;;;2.03;;
13687;SDS011;6916;51.504;7.416;2023-06-04T06:07:55;4.65;;;2.92;;
13687;SDS011;6916;51.504;7.416;2023-06-04T06:17:58;3.07;;;2.53;;
13687;SDS011;6916;51.504;7.416;2023-06-04T06:28:01;4.22;;;1.83;;
13687;SDS011;6916;51.504;7.416;2023-06-04T06:38:04;2.95;;;1.90;;
13687;SDS011;6916;51.504;7.416;2023-06-04T06:48:07;2.58;;;1.42;;
13687;SDS011;6916;51.504;7.416;2023-06-04T06:58:09;1.90;;;1.25;;
13687;SDS011;6916;51.504;7.416;2023-06-04T07:08:11;1.60;;;0.98;;
13687;SDS011;6916;51.504;7.416;2023-06-04T07:18:14;2.53;;;1.20;;
13687;SDS011;6916;51.504;7.416;2023-06-04T07:28:16;2.00;;;1.23;;
13687;SDS011;6916;51.504;7.416;2023-06-04T07:38:18;1.55;;;1.10;;
13687;SDS011;6916;51.504;7.416;2023-06-04T07:48:21;3.70;;;1.10;;
13687;SDS011;6916;51.504;7.416;2023-06-04T07:58:23;2.28;;;1.10;;
13687;SDS011;6916;51.504;7.416;2023-06-04T08:08:25;4.38;;;1.05;;
13687;SDS011;6916;51.504;7.416;2023-06-04T08:18:28;2.75;;;1.48;;
13687;SDS011;6916;51.504;7.416;2023-06-04T08:28:50;3.03;;;1.27;;
13687;SDS011;6916;51.504;7.416;2023-06-04T08:38:59;2.22;;;1.33;;
13687;SDS011;6916;51.504;7.416;2023-06-04T08:49:02;4.10;;;1.70;;
13687;SDS011;6916;51.504;7.416;2023-06-04T08:59:05;2.85;;;1.90;;
13687;SDS011;6916;51.504;7.416;2023-06-04T09:09:09;6.43;;;1.90;;
13687;SDS011;6916;51.504;7.416;2023-06-04T09:19:15;3.13;;;2.05;;
13687;SDS011;6916;51.504;7.416;2023-06-04T09:29:18;4.55;;;2.08;;
13687;SDS011;6916;51.504;7.416;2023-06-04T09:39:21;3.72;;;2.20;;
13687;SDS011;6916;51.504;7.416;2023-06-04T09:49:23;2.47;;;1.90;;
13687;SDS011;6916;51.504;7.416;2023-06-04T09:59:25;2.40;;;2.00;;
13687;SDS011;6916;51.504;7.416;2023-06-04T10:09:27;2.70;;;1.23;;
13687;SDS011;6916;51.504;7.416;2023-06-04T10:19:34;4.47;;;1.50;;
13687;SDS011;6916;51.504;7.416;2023-06-04T10:29:37;3.17;;;1.48;;
13687;SDS011;6916;51.504;7.416;2023-06-04T10:39:39;1.58;;;1.05;;
13687;SDS011;6916;51.504;7.416;2023-06-04T10:49:55;3.08;;;1.40;;
13687;SDS011;6916;51.504;7.416;2023-06-04T10:59:57;2.85;;;1.75;;
13687;SDS011;6916;51.504;7.416;2023-06-04T11:10:01;3.20;;;1.65;;
13687;SDS011;6916;51.504;7.416;2023-06-04T11:20:04;2.65;;;0.73;;
13687;SDS011;6916;51.504;7.416;2023-06-04T11:30:08;1.52;;;1.23;;
13687;SDS011;6916;51.504;7.416;2023-06-04T11:40:15;4.70;;;1.40;;
13687;SDS011;6916;51.504;7.416;2023-06-04T11:50:19;1.35;;;1.10;;
13687;SDS011;6916;51.504;7.416;2023-06-04T12:00:22;3.47;;;1.60;;
13687;SDS011;6916;51.504;7.416;2023-06-04T12:10:25;2.58;;;1.42;;
13687;SDS011;6916;51.504;7.416;2023-06-04T12:20:35;2.38;;;1.17;;
13687;SDS011;6916;51.504;7.416;2023-06-04T12:30:38;3.03;;;1.20;;
13687;SDS011;6916;51.504;7.416;2023-06-04T12:40:42;2.08;;;1.13;;
13687;SDS011;6916;51.504;7.416;2023-06-04T12:50:44;2.20;;;0.70;;
13687;SDS011;6916;51.504;7.416;2023-06-04T13:00:48;2.30;;;1.63;;
13687;SDS011;6916;51.504;7.416;2023-06-04T13:10:50;2.58;;;0.95;;
13687;SDS011;6916;51.504;7.416;2023-06-04T13:20:53;3.72;;;1.10;;
13687;SDS011;6916;51.504;7.416;2023-06-04T13:30:56;2.63;;;0.80;;
13687;SDS011;6916;51.504;7.416;2023-06-04T13:40:58;1.60;;;1.23;;
13687;SDS011;6916;51.504;7.416;2023-06-04T13:51:00;3.63;;;0.93;;
13687;SDS011;6916;51.504;7.416;2023-06-04T14:01:03;1.40;;;0.98;;
13687;SDS011;6916;51.504;7.416;2023-06-04T14:11:05;3.58;;;1.58;;
13687;SDS011;6916;51.504;7.416;2023-06-04T14:21:08;2.28;;;1.08;;
13687;SDS011;6916;51.504;7.416;2023-06-04T14:31:11;5.78;;;1.45;;
13687;SDS011;6916;51.504;7.416;2023-06-04T14:41:14;2.65;;;1.17;;
13687;SDS011;6916;51.504;7.416;2023-06-04T14:51:17;2.72;;;1.27;;
13687;SDS011;6916;51.504;7.416;2023-06-04T15:01:19;2.00;;;1.30;;
13687;SDS011;6916;51.504;7.416;2023-06-04T15:11:24;1.67;;;1.50;;
13687;SDS011;6916;51.504;7.416;2023-06-04T15:21:27;1.88;;;1.20;;
13687;SDS011;6916;51.504;7.416;2023-06-04T15:31:30;1.65;;;1.48;;
13687;SDS011;6916;51.504;7.416;2023-06-04T15:41:32;2.58;;;1.50;;
13687;SDS011;6916;51.504;7.416;2023-06-04T15:51:35;1.90;;;1.27;;
13687;SDS011;6916;51.504;7.416;2023-06-04T16:01:37;1.60;;;1.20;;
13687;SDS011;6916;51.504;7.416;2023-06-04T16:11:44;1.85;;;1.30;;
13687;SDS011;6916;51.504;7.416;2023-06-04T16:21:46;1.95;;;1.20;;
13687;SDS011;6916;51.504;7.416;2023-06-04T16:31:49;2.40;;;1.80;;
13687;SDS011;6916;51.504;7.416;2023-06-04T16:41:53;4.43;;;1.90;;
13687;SDS011;6916;51.504;7.416;2023-06-04T16:51:55;3.28;;;1.40;;
13687;SDS011;6916;51.504;7.416;2023-06-04T17:01:58;3.47;;;1.48;;
13687;SDS011;6916;51.504;7.416;2023-06-04T17:12:01;2.35;;;0.90;;
13687;SDS011;6916;51.504;7.416;2023-06-04T17:22:03;2.75;;;1.05;;
13687;SDS011;6916;51.504;7.416;2023-06-04T17:32:06;1.33;;;0.77;;
13687;SDS011;6916;51.504;7.416;2023-06-04T17:42:08;3.53;;;1.95;;
13687;SDS011;6916;51.504;7.416;2023-06-04T17:52:11;2.47;;;1.08;;
13687;SDS011;6916;51.504;7.416;2023-06-04T18:02:13;2.30;;;0.85;;
13687;SDS011;6916;51.504;7.416;2023-06-04T18:12:16;1.67;;;0.77;;
13687;SDS011;6916;51.504;7.416;2023-06-04T18:22:18;2.22;;;0.70;;
13687;SDS011;6916;51.504;7.416;2023-06-04T18:32:21;0.85;;;0.60;;
13687;SDS011;6916;51.504;7.416;2023-06-04T18:42:23;3.58;;;1.13;;
13687;SDS011;6916;51.504;7.416;2023-06-04T18:52:28;0.80;;;0.80;;
13687;SDS011;6916;51.504;7.416;2023-06-04T19:02:31;1.30;;;0.80;;
13687;SDS011;6916;51.504;7.416;2023-06-04T19:12:34;2.72;;;0.75;;
13687;SDS011;6916;51.504;7.416;2023-06-04T19:22:36;1.58;;;1.00;;
13687;SDS011;6916;51.504;7.416;2023-06-04T19:32:38;1.90;;;0.85;;
13687;SDS011;6916;51.504;7.416;2023-06-04T19:42:41;0.75;;;0.70;;
13687;SDS011;6916;51.504;7.416;2023-06-04T19:52:44;1.10;;;0.63;;
13687;SDS011;6916;51.504;7.416;2023-06-04T20:02:47;2.22;;;0.70;;
13687;SDS011;6916;51.504;7.416;2023-06-04T20:12:50;3.53;;;0.93;;
13687;SDS011;6916;51.504;7.416;2023-06-04T20:22:52;1.55;;;1.08;;
13687;SDS011;6916;51.504;7.416;2023-06-04T20:32:55;1.75;;;0.82;;
13687;SDS011;6916;51.504;7.416;2023-06-04T20:42:57;1.75;;;1.20;;
13687;SDS011;6916;51.504;7.416;2023-06-04T20:53:00;4.00;;;1.38;;
13687;SDS011;6916;51.504;7.416;2023-06-04T21:03:03;1.35;;;1.23;;
13687;SDS011;6916;51.504;7.416;2023-06-04T21:13:06;2.42;;;1.27;;
13687;SDS011;6916;51.504;7.416;2023-06-04T21:23:08;4.38;;;1.55;;
13687;SDS011;6916;51.504;7.416;2023-06-04T21:33:11;4.30;;;1.48;;
13687;SDS011;6916;51.504;7.416;2023-06-04T21:43:13;3.53;;;0.90;;
13687;SDS011;6916;51.504;7.416;2023-06-04T21:53:16;2.58;;;1.30;;
13687;SDS011;6916;51.504;7.416;2023-06-04T22:03:19;2.35;;;0.85;;
13687;SDS011;6916;51.504;7.416;2023-06-04T22:13:22;1.77;;;1.08;;
13687;SDS011;6916;51.504;7.416;2023-06-04T22:23:24;1.90;;;1.23;;
13687;SDS011;6916;51.504;7.416;2023-06-04T22:33:26;3.65;;;0.80;;
13687;SDS011;6916;51.504;7.416;2023-06-04T22:43:31;5.30;;;1.20;;
13687;SDS011;6916;51.504;7.416;2023-06-04T22:53:33;6.68;;;1.42;;
13687;SDS011;6916;51.504;7.416;2023-06-04T23:03:36;3.72;;;1.25;;
13687;SDS011;6916;51.504;7.416;2023-06-04T23:13:38;2.33;;;1.25;;
13687;SDS011;6916;51.504;7.416;2023-06-04T23:23:41;3.42;;;1.45;;
13687;SDS011;6916;51.504;7.416;2023-06-04T23:33:43;5.03;;;1.58;;
13687;SDS011;6916;51.504;7.416;2023-06-04T23:43:46;4.55;;;1.50;;
13687;SDS011;6916;51.504;7.416;2023-06-04T23:53:48;3.63;;;1.20;;
